Sunday, April 22, 2018, 5:54 PM EDT
Back to Local

KBDR, Sikorsky Memorial Airport

Location: Stratford, CT, United States Lat: 41.167
Local Time: 5:54 PM EDT (21:54 GMT) Lon: -73.133
Time Zone: US/Eastern Elev: 9 ft

Show me the last for .
Show Decoded

2018-04-22 16:52 METAR KBDR 222052Z 20012KT 10SM CLR 16/M07 A3032 RMK AO2 SLP265 T01561067 56015
                 =
2018-04-22 15:52 METAR KBDR 221952Z 19012KT 10SM CLR 16/M07 A3032 RMK AO2 SLP266 T01561072 =
2018-04-22 14:52 METAR KBDR 221852Z 20013KT 10SM CLR 16/M06 A3034 RMK AO2 SLP274 T01561061 =
2018-04-22 13:52 METAR KBDR 221752Z 19011KT 10SM CLR 14/M07 A3036 RMK AO2 SLP280 T01391072 10156
                 20089 56014 =
2018-04-22 12:52 METAR KBDR 221652Z 21012KT 10SM CLR 14/M06 A3037 RMK AO2 SLP283 T01441056 =
2018-04-22 11:52 METAR KBDR 221552Z 28009G19KT 260V320 10SM CLR 15/M10 A3039 RMK AO2 SLP289
                 T01501100 =
2018-04-22 10:52 METAR KBDR 221452Z 34008G15KT 10SM CLR 14/M11 A3040 RMK AO2 SLP293 T01441106
                 56002 =
2018-04-22 09:52 METAR KBDR 221352Z 35006KT 10SM CLR 13/M10 A3040 RMK AO2 SLP294 T01281100 =
2018-04-22 08:52 METAR KBDR 221252Z 33008KT 10SM CLR 11/M07 A3040 RMK AO2 SLP294 T01111067 =
2018-04-22 07:52 METAR KBDR 221152Z 33007KT 10SM CLR 09/M06 A3041 RMK AO2 SLP296 T00891061 10089
                 20044 53013 =
2018-04-22 06:52 METAR KBDR 221052Z 31005KT 10SM CLR 06/M06 A3039 RMK AO2 SLP290 T00561056 =
2018-04-22 05:52 METAR KBDR 220952Z AUTO 32005KT 10SM CLR 06/M07 A3037 RMK AO2 SLP284 T00561072 =
2018-04-22 04:52 METAR KBDR 220852Z AUTO 29004KT 10SM CLR 07/M07 A3037 RMK AO2 SLP283 T00671072
                 53007 =
2018-04-22 03:52 METAR KBDR 220752Z AUTO 33003KT 10SM CLR 06/M07 A3036 RMK AO2 SLP281 T00611067 =
2018-04-22 02:52 METAR KBDR 220652Z AUTO 34006KT 10SM CLR 08/M07 A3035 RMK AO2 SLP278 T00781072 =
2018-04-22 01:52 METAR KBDR 220552Z AUTO 32006KT 10SM CLR 08/M07 A3035 RMK AO2 SLP276 T00831072
                 10144 20083 50007 =
2018-04-22 00:52 METAR KBDR 220452Z AUTO 33008KT 10SM CLR 09/M07 A3035 RMK AO2 SLP277 T00891072
                 401720028 =
2018-04-21 23:52 METAR KBDR 220352Z AUTO 33004KT 10SM CLR 10/M07 A3033 RMK AO2 SLP271 T01001072 =
2018-04-21 22:52 METAR KBDR 220252Z AUTO 34008KT 10SM CLR 11/M07 A3033 RMK AO2 SLP270 T01111072
                 51019 =
2018-04-21 21:52 METAR KBDR 220152Z 35005KT 10SM CLR 11/M07 A3031 RMK AO2 SLP264 T01111072 =
2018-04-21 20:52 METAR KBDR 220052Z 34004KT 10SM CLR 13/M08 A3030 RMK AO2 SLP258 T01281078 =
2018-04-21 19:52 METAR KBDR 212352Z 31007KT 10SM CLR 14/M08 A3027 RMK AO2 SLP251 T01441083 10172
                 20128 53015 =
2018-04-21 18:52 METAR KBDR 212252Z 31015G19KT 10SM CLR 16/M09 A3024 RMK AO2 SLP240 T01561089 =

Support USWX by starting your Amazon purchase here.